createdAt,value
2023-02-18T00:02:52.167Z,100975.94
2023-02-18T00:07:55.272Z,100976.94
2023-02-18T00:13:00.136Z,100965.81
2023-02-18T00:18:03.024Z,100957.91
2023-02-18T00:23:05.714Z,100968.69
2023-02-18T00:28:09.747Z,100980.09
2023-02-18T00:33:12.419Z,100983.72
2023-02-18T00:38:15.084Z,100991.69
2023-02-18T00:43:19.133Z,100997.84
2023-02-18T00:48:22.171Z,100996.25
2023-02-18T00:53:25.060Z,101004.13
2023-02-18T00:58:29.522Z,101006.75
2023-02-18T01:03:32.244Z,101009.56
2023-02-18T01:08:35.396Z,101024.69
2023-02-18T01:13:40.026Z,101028.66
2023-02-18T01:18:42.882Z,101034.84
2023-02-18T01:23:45.665Z,101031.38
2023-02-18T01:28:53.125Z,101036.72
2023-02-18T01:33:56.890Z,101041.97
2023-02-18T01:38:59.589Z,101049.13
2023-02-18T01:44:15.108Z,101034.09
2023-02-18T01:49:20.721Z,101037.88
2023-02-18T01:54:28.761Z,101029.81
2023-02-18T01:59:34.473Z,101033.56
2023-02-18T02:04:37.195Z,101013.59
2023-02-18T02:09:40.996Z,101003.31
2023-02-18T02:14:55.752Z,100996.31
2023-02-18T02:20:27.318Z,100975.28
2023-02-18T02:25:45.473Z,100963.84
2023-02-18T02:31:12.896Z,100935.00
2023-02-18T02:36:17.761Z,100883.22
2023-02-18T02:41:29.041Z,100827.16
2023-02-18T02:46:38.206Z,100763.19
2023-02-18T02:51:46.740Z,100595.75
2023-02-18T02:56:49.758Z,100581.78
2023-02-18T03:02:08.142Z,100548.41
2023-02-18T03:07:27.778Z,100559.78
2023-02-18T03:12:37.176Z,100561.69
2023-02-18T03:17:46.389Z,100565.09
2023-02-18T03:22:52.375Z,100590.50
2023-02-18T03:27:57.168Z,100600.19
2023-02-18T03:33:03.532Z,100584.53
2023-02-18T03:38:10.931Z,100444.13
2023-02-18T03:43:13.680Z,100458.94
2023-02-18T03:48:16.475Z,100488.94
2023-02-18T03:53:21.442Z,100496.72
2023-02-18T03:58:24.142Z,100512.50
2023-02-18T04:03:26.952Z,100526.66
2023-02-18T04:08:31.031Z,100532.75
2023-02-18T04:13:34.943Z,100534.63
2023-02-18T04:18:37.689Z,100552.19
2023-02-18T04:23:41.770Z,100557.47
2023-02-18T04:28:44.514Z,100565.41
2023-02-18T04:33:47.509Z,100011.28
2023-02-18T04:38:51.625Z,99726.41
2023-02-18T04:43:54.341Z,99660.66
2023-02-18T04:48:57.126Z,99670.31
2023-02-18T04:54:01.195Z,99710.63
2023-02-18T04:59:03.908Z,99727.19
2023-02-18T05:04:06.688Z,99787.72
2023-02-18T05:09:10.879Z,99842.97
2023-02-18T05:14:13.605Z,99505.47
2023-02-18T05:19:16.545Z,99515.13
2023-02-18T05:24:20.587Z,99552.00
2023-02-18T05:29:23.292Z,99601.09
2023-02-18T05:34:26.008Z,99608.16
2023-02-18T05:39:30.070Z,99581.94
2023-02-18T05:44:33.480Z,99635.34
2023-02-18T05:49:36.579Z,99564.38
2023-02-18T05:54:41.057Z,99629.25
2023-02-18T05:59:43.764Z,99702.03
2023-02-18T06:04:46.495Z,100756.69
2023-02-18T06:09:50.677Z,101099.44
2023-02-18T06:14:53.388Z,101657.34
2023-02-18T06:19:56.088Z,102207.31
2023-02-18T06:25:00.139Z,102428.28
2023-02-18T06:30:03.022Z,102623.97
2023-02-18T06:35:06.312Z,102734.38
2023-02-18T06:40:11.110Z,102916.00
2023-02-18T06:45:13.865Z,103107.91
2023-02-18T06:50:16.762Z,103158.84
2023-02-18T06:55:20.876Z,103284.53
2023-02-18T07:00:23.835Z,103337.19
2023-02-18T07:05:26.538Z,103443.41
2023-02-18T07:10:30.735Z,103473.16
2023-02-18T07:15:33.519Z,103910.34
2023-02-18T07:20:36.248Z,104106.91
2023-02-18T07:25:40.859Z,104209.75
2023-02-18T07:30:43.517Z,104210.69
2023-02-18T07:35:46.177Z,104255.59
2023-02-18T07:40:50.321Z,104293.41
2023-02-18T07:45:54.132Z,105106.66
2023-02-18T07:50:56.861Z,105178.53
2023-02-18T07:56:00.922Z,105252.09
2023-02-18T08:01:06.020Z,105335.09
2023-02-18T08:06:09.414Z,105288.22
2023-02-18T08:11:19.474Z,105291.66
2023-02-18T08:16:22.876Z,105171.22
2023-02-18T08:21:26.357Z,105137.50
2023-02-18T08:26:30.706Z,105281.88
2023-02-18T08:31:33.520Z,105197.38
2023-02-18T08:36:36.968Z,105081.47
2023-02-18T08:41:41.050Z,104950.47
2023-02-18T08:46:43.876Z,104902.13
2023-02-18T08:51:46.648Z,104713.97
2023-02-18T08:56:50.800Z,104312.69
2023-02-18T09:01:53.715Z,104068.53
2023-02-18T09:06:56.401Z,103799.28
2023-02-18T09:12:00.497Z,103586.41
2023-02-18T09:17:03.186Z,103493.59
2023-02-18T09:22:06.360Z,103358.38
2023-02-18T09:27:11.377Z,103253.47
2023-02-18T09:32:19.981Z,103145.38
2023-02-18T09:37:28.838Z,103037.94
2023-02-18T09:42:35.271Z,102860.44
2023-02-18T09:47:39.472Z,102362.88
2023-02-18T09:52:42.189Z,102026.78
2023-02-18T09:57:48.815Z,100929.50
2023-02-18T10:02:56.345Z,100704.00
2023-02-18T10:08:02.352Z,100533.41
2023-02-18T10:13:11.229Z,100425.69
2023-02-18T10:18:25.959Z,100398.13
2023-02-18T10:23:30.474Z,100306.09
2023-02-18T10:28:36.022Z,100275.31
2023-02-18T10:33:43.961Z,100228.84
2023-02-18T10:38:57.729Z,100152.69
2023-02-18T10:44:10.837Z,100067.72
2023-02-18T10:49:32.994Z,99979.25
2023-02-18T10:54:51.382Z,99877.63
2023-02-18T11:00:01.397Z,99810.81
2023-02-18T11:05:13.706Z,99751.41
2023-02-18T11:10:18.046Z,99654.63
2023-02-18T11:15:24.558Z,99617.38
2023-02-18T11:20:32.308Z,99359.75
2023-02-18T11:25:36.744Z,99313.09
2023-02-18T11:30:42.602Z,99277.38
2023-02-18T11:35:50.457Z,99230.88
2023-02-18T11:40:56.834Z,99183.13
2023-02-18T11:46:10.840Z,99183.31
2023-02-18T11:51:18.929Z,99177.97
2023-02-18T11:56:21.637Z,99189.44
2023-02-18T12:01:32.848Z,99194.69
2023-02-18T12:06:39.070Z,99201.47
2023-02-18T12:11:44.688Z,99245.22
2023-02-18T12:17:00.535Z,99261.00
2023-02-18T12:22:06.444Z,99322.31
2023-02-18T12:27:16.322Z,99356.41
2023-02-18T12:32:29.354Z,99385.34
2023-02-18T12:37:52.488Z,99403.75
2023-02-18T12:42:58.143Z,99438.75
2023-02-18T12:48:20.109Z,99492.34
2023-02-18T12:53:52.268Z,99541.44
2023-02-18T12:58:59.574Z,99586.28
2023-02-18T13:04:23.315Z,99602.13
2023-02-18T13:09:33.110Z,99617.41
2023-02-18T13:14:43.885Z,99574.50
2023-02-18T13:19:51.610Z,99537.84
2023-02-18T13:24:58.922Z,99498.28
2023-02-18T13:30:20.587Z,99478.28
2023-02-18T13:35:28.598Z,99477.03
2023-02-18T13:40:32.309Z,99436.00
2023-02-18T13:45:35.186Z,99387.72
2023-02-18T13:50:44.085Z,99310.72
2023-02-18T13:55:52.916Z,99264.47
2023-02-18T14:00:58.228Z,99222.31
2023-02-18T14:06:02.435Z,99137.03
2023-02-18T14:11:33.709Z,99086.03
2023-02-18T14:17:09.628Z,99100.03
2023-02-18T14:22:33.072Z,99158.69
2023-02-18T14:27:36.514Z,99204.06
2023-02-18T14:32:40.992Z,99289.81
2023-02-18T14:38:16.599Z,99377.31
2023-02-18T14:43:28.506Z,99470.34
2023-02-18T14:48:53.850Z,99546.72
2023-02-18T14:53:58.186Z,99606.25
2023-02-18T14:59:03.865Z,99684.47
2023-02-18T15:04:06.652Z,99769.47
2023-02-18T15:09:16.685Z,99830.97
2023-02-18T15:14:21.644Z,99875.84
2023-02-18T15:19:27.295Z,99938.94
2023-02-18T15:24:33.328Z,100005.41
2023-02-18T15:29:37.265Z,100065.81
2023-02-18T15:34:40.555Z,100109.75
2023-02-18T15:39:45.182Z,100181.69
2023-02-18T15:44:49.892Z,100788.53
2023-02-18T15:49:55.093Z,100858.91
2023-02-18T15:55:03.258Z,100879.44
2023-02-18T16:00:13.422Z,100768.94
2023-02-18T16:05:16.722Z,100632.16
2023-02-18T16:10:24.053Z,100728.50
2023-02-18T16:15:28.443Z,100784.56
2023-02-18T16:20:33.093Z,100852.91
2023-02-18T16:25:42.855Z,100788.03
2023-02-18T16:30:46.443Z,100819.59
2023-02-18T16:35:50.765Z,100842.44
2023-02-18T16:40:55.800Z,101020.44
2023-02-18T16:46:00.203Z,101034.34
2023-02-18T16:51:05.526Z,101080.13
2023-02-18T16:56:14.698Z,101070.66
2023-02-18T17:01:23.249Z,100741.88
2023-02-18T17:06:26.226Z,100944.53
2023-02-18T17:11:33.575Z,101030.75
2023-02-18T17:16:36.340Z,100784.25
2023-02-18T17:21:39.164Z,100621.94
2023-02-18T17:26:43.446Z,100488.44
2023-02-18T17:31:47.320Z,100407.97
2023-02-18T17:36:50.270Z,100306.09
2023-02-18T17:41:54.302Z,100236.81
2023-02-18T17:46:57.020Z,100135.72
2023-02-18T17:52:01.161Z,100071.66
2023-02-18T17:57:05.220Z,100032.44
2023-02-18T18:02:15.733Z,99958.72
2023-02-18T18:07:18.435Z,99907.91
2023-02-18T18:12:22.509Z,99835.16
2023-02-18T18:17:25.266Z,99803.66
2023-02-18T18:22:27.992Z,99708.00
2023-02-18T18:27:32.030Z,99663.25
2023-02-18T18:32:34.737Z,99637.72
2023-02-18T18:37:37.450Z,99619.34
2023-02-18T18:42:41.689Z,99607.22
2023-02-18T18:47:44.432Z,99587.13
2023-02-18T18:52:48.073Z,99560.88
2023-02-18T18:57:52.475Z,99515.22
2023-02-18T19:02:55.311Z,99489.84
2023-02-18T19:07:58.693Z,99449.59
2023-02-18T19:13:05.030Z,99406.50
2023-02-18T19:18:07.898Z,99354.84
2023-02-18T19:23:10.644Z,99318.84
2023-02-18T19:28:14.742Z,99268.84
2023-02-18T19:33:17.514Z,99257.53
2023-02-18T19:38:20.712Z,99219.84
2023-02-18T19:43:24.832Z,99182.13
2023-02-18T19:48:27.763Z,99131.28
2023-02-18T19:53:30.888Z,99113.84
2023-02-18T19:58:35.357Z,99050.66
2023-02-18T20:03:38.120Z,99019.03
2023-02-18T20:08:40.845Z,98999.78
2023-02-18T20:13:44.959Z,98969.91
2023-02-18T20:18:47.708Z,98961.91
2023-02-18T20:23:54.319Z,98961.00
2023-02-18T20:28:59.509Z,98963.59
2023-02-18T20:34:02.259Z,98981.97
2023-02-18T20:39:15.596Z,99015.25
2023-02-18T20:44:21.096Z,99051.19
2023-02-18T20:49:23.841Z,99069.56
2023-02-18T20:54:26.558Z,99081.84
2023-02-18T20:59:33.131Z,99114.25
2023-02-18T21:04:35.889Z,99145.78
2023-02-18T21:09:38.864Z,99167.66
2023-02-18T21:14:42.964Z,99209.72
2023-02-18T21:19:45.648Z,99267.47
2023-02-18T21:24:50.954Z,99359.41
2023-02-18T21:29:55.085Z,99438.25
2023-02-18T21:34:57.749Z,99580.09
2023-02-18T21:40:02.133Z,99719.38
2023-02-18T21:45:06.775Z,99880.50
2023-02-18T21:50:09.928Z,100065.44
2023-02-18T21:55:12.778Z,100386.03
2023-02-18T22:00:21.151Z,100682.88
2023-02-18T22:05:25.976Z,101356.44
2023-02-18T22:10:28.633Z,102579.00
2023-02-18T22:15:32.660Z,104083.59
2023-02-18T22:20:35.349Z,104491.69
2023-02-18T22:25:38.092Z,104817.97
2023-02-18T22:30:42.180Z,105479.63
2023-02-18T22:35:44.886Z,105613.31
2023-02-18T22:40:50.481Z,105939.25
2023-02-18T22:45:54.817Z,106076.38
2023-02-18T22:50:57.556Z,106190.50
2023-02-18T22:56:01.870Z,106198.63
2023-02-18T23:01:06.919Z,106348.16
2023-02-18T23:06:09.669Z,106431.88
2023-02-18T23:11:13.712Z,106720.06
2023-02-18T23:16:17.809Z,106882.13
2023-02-18T23:21:21.781Z,107105.72
2023-02-18T23:26:26.133Z,107264.22
2023-02-18T23:31:30.289Z,107333.91
2023-02-18T23:36:34.440Z,107576.72
2023-02-18T23:41:37.531Z,107748.50
2023-02-18T23:46:41.992Z,107791.38
2023-02-18T23:51:45.036Z,107789.72
2023-02-18T23:56:47.861Z,107984.69
